Time;durP1;ratioP1;P1;durP2;ratioP2;P2;SDS_P1;SDS_P2;PMS_P1;PMS_P2;Temp;Humidity;BMP_temperature;BMP_pressure;BME280_temperature;BME280_humidity;BME280_pressure;Samples;Min_cycle;Max_cycle;Signal;HPM_P1;HPM_P2
2022/10/29 00:00:25;;;;;;;16.88;11.48;;;;;;;10.61;95.43;99627.69;5091243;28;20058;-65
2022/10/29 00:02:51;;;;;;;16.75;10.93;;;;;;;10.60;95.70;99631.16;5090103;28;20315;-65
2022/10/29 00:05:16;;;;;;;15.43;11.07;;;;;;;10.45;95.60;99628.00;5102183;28;20089;-65
2022/10/29 00:07:42;;;;;;;16.63;11.00;;;;;;;10.50;95.37;99623.59;5102077;28;20036;-66
2022/10/29 00:10:08;;;;;;;13.32;9.88;;;;;;;10.60;95.23;99632.00;5103578;28;20028;-65
2022/10/29 00:12:34;;;;;;;12.00;10.27;;;;;;;10.65;95.16;99631.91;5102500;28;20077;-65
2022/10/29 00:14:59;;;;;;;12.02;10.55;;;;;;;10.61;95.15;99631.13;5096315;28;20029;-65
2022/10/29 00:17:25;;;;;;;13.23;10.10;;;;;;;10.62;94.92;99616.44;5082132;28;20205;-66
2022/10/29 00:19:51;;;;;;;13.30;9.93;;;;;;;10.64;94.76;99620.69;5083662;28;20060;-65
2022/10/29 00:22:16;;;;;;;14.90;10.30;;;;;;;10.48;95.62;99617.59;5099854;28;20348;-66
2022/10/29 00:24:42;;;;;;;13.27;10.52;;;;;;;10.50;95.34;99614.97;5096676;28;20044;-65
2022/10/29 00:27:07;;;;;;;17.00;9.70;;;;;;;10.39;95.53;99607.44;5095121;28;20032;-66
2022/10/29 00:29:33;;;;;;;12.80;10.65;;;;;;;10.56;95.21;99617.44;5083127;28;20043;-66
2022/10/29 00:31:58;;;;;;;11.77;9.98;;;;;;;10.50;95.71;99618.44;5088169;28;20031;-65
2022/10/29 00:34:24;;;;;;;10.90;8.70;;;;;;;10.58;94.91;99620.00;5084198;28;20032;-66
2022/10/29 00:36:50;;;;;;;13.18;9.75;;;;;;;10.55;95.16;99615.72;5097206;28;20312;-66
2022/10/29 00:39:16;;;;;;;11.27;9.00;;;;;;;10.39;94.79;99576.38;5093626;28;20111;-66
2022/10/29 00:41:42;;;;;;;11.18;9.05;;;;;;;10.61;94.59;99614.72;5088131;28;20216;-66
2022/10/29 00:44:13;;;;;;;9.38;7.82;;;;;;;10.64;94.56;99609.47;5103441;28;20166;-66
2022/10/29 00:47:19;;;;;;;10.48;8.43;;;;;;;10.63;93.87;99611.22;5082979;28;20228;-64
2022/10/29 00:50:00;;;;;;;12.88;8.57;;;;;;;10.64;94.32;99597.38;5096100;28;20038;-66
2022/10/29 00:52:31;;;;;;;11.48;7.68;;;;;;;10.63;94.25;99587.91;5084093;28;20265;-66
2022/10/29 00:55:00;;;;;;;10.13;7.88;;;;;;;10.55;93.43;99565.69;5098411;28;20032;-65
2022/10/29 00:57:33;;;;;;;13.00;9.45;;;;;;;10.68;93.35;99603.34;5092023;28;20347;-65
2022/10/29 00:59:58;;;;;;;11.35;8.30;;;;;;;10.59;93.84;99590.59;5084283;28;20119;-65
2022/10/29 01:02:25;;;;;;;8.63;6.57;;;;;;;10.69;93.53;99598.13;5085288;28;20029;-65
2022/10/29 01:04:52;;;;;;;10.98;8.15;;;;;;;10.68;93.38;99595.56;5101724;28;20211;-66
2022/10/29 01:07:21;;;;;;;9.30;7.43;;;;;;;10.62;94.08;99598.31;5107037;28;20024;-70
2022/10/29 01:09:48;;;;;;;12.18;6.80;;;;;;;10.58;93.83;99583.72;5093638;28;20055;-65
2022/10/29 01:12:44;;;;;;;9.90;7.82;;;;;;;10.46;93.97;99577.06;5095694;28;20069;-65
2022/10/29 01:15:18;;;;;;;8.90;7.25;;;;;;;10.57;93.96;99576.84;5098662;28;20028;-65
2022/10/29 01:18:31;;;;;;;9.60;7.57;;;;;;;10.55;93.59;99552.75;5090199;28;20027;-66
2022/10/29 01:21:48;;;;;;;10.88;7.07;;;;;;;10.66;93.30;99571.44;5096327;28;20036;-65
2022/10/29 01:24:28;;;;;;;8.57;6.70;;;;;;;10.66;92.93;99561.94;5033593;28;20095;-66
2022/10/29 01:26:57;;;;;;;7.47;6.60;;;;;;;10.63;93.15;99561.16;5030953;28;20441;-66
2022/10/29 01:30:04;;;;;;;6.97;5.97;;;;;;;10.59;93.20;99562.97;5077337;28;20108;-66
2022/10/29 01:32:43;;;;;;;6.97;6.28;;;;;;;10.52;93.38;99564.84;5097589;28;20077;-65
2022/10/29 01:35:16;;;;;;;8.35;6.53;;;;;;;10.53;92.94;99552.75;5106835;28;20024;-66
2022/10/29 01:38:18;;;;;;;7.50;6.70;;;;;;;10.58;93.08;99545.72;5085416;28;20040;-65
2022/10/29 01:40:44;;;;;;;8.68;6.63;;;;;;;10.59;93.12;99541.38;5086400;28;20305;-66
2022/10/29 01:43:12;;;;;;;10.35;6.80;;;;;;;10.56;92.84;99547.53;5102750;28;20087;-65
2022/10/29 01:45:45;;;;;;;7.35;6.20;;;;;;;10.35;93.14;99525.56;5104769;28;20044;-66
2022/10/29 01:48:16;;;;;;;6.93;5.70;;;;;;;10.36;92.96;99522.06;5098015;28;20034;-66
2022/10/29 01:50:44;;;;;;;7.93;5.97;;;;;;;10.47;92.97;99534.78;5090637;28;20227;-65
2022/10/29 01:53:10;;;;;;;8.10;6.32;;;;;;;10.44;93.17;99535.69;5106396;28;20031;-64
2022/10/29 01:55:36;;;;;;;6.85;5.85;;;;;;;10.48;92.83;99532.16;5085159;28;20099;-66
2022/10/29 01:58:03;;;;;;;8.95;6.82;;;;;;;10.45;92.68;99539.16;5101211;28;20024;-65
2022/10/29 02:00:57;;;;;;;8.02;6.63;;;;;;;10.41;92.92;99528.00;5095432;28;20321;-65
2022/10/29 02:03:32;;;;;;;8.07;6.72;;;;;;;10.46;92.65;99527.88;5077466;28;20032;-68
2022/10/29 02:06:00;;;;;;;9.25;6.85;;;;;;;10.39;92.96;99532.38;5104543;28;20028;-67
2022/10/29 02:08:40;;;;;;;10.85;7.75;;;;;;;10.34;93.15;99531.63;5104221;28;20062;-68
2022/10/29 02:11:06;;;;;;;7.72;6.35;;;;;;;10.29;93.16;99528.25;5068073;28;20229;-66
2022/10/29 02:13:36;;;;;;;8.55;6.85;;;;;;;10.33;93.15;99525.56;5104775;28;20031;-67
2022/10/29 02:16:07;;;;;;;7.63;6.13;;;;;;;10.25;93.01;99526.63;5090793;28;20033;-66
2022/10/29 02:18:45;;;;;;;8.93;7.05;;;;;;;10.27;92.69;99520.50;5083688;28;20020;-65
2022/10/29 02:21:14;;;;;;;10.15;6.70;;;;;;;10.31;92.46;99519.56;5092436;28;20016;-65
2022/10/29 02:23:40;;;;;;;6.93;5.53;;;;;;;10.30;92.83;99517.00;5096005;28;20032;-64
2022/10/29 02:26:05;;;;;;;9.10;6.93;;;;;;;10.32;92.88;99517.84;5104513;28;20035;-64
2022/10/29 02:28:31;;;;;;;8.45;6.72;;;;;;;10.29;92.68;99507.53;5086867;28;20050;-65
2022/10/29 02:30:57;;;;;;;7.88;6.43;;;;;;;10.35;92.37;99517.81;5099694;28;20047;-65
2022/10/29 02:33:22;;;;;;;9.45;6.47;;;;;;;10.33;92.25;99504.00;5105574;28;20031;-64
2022/10/29 02:35:48;;;;;;;7.70;6.93;;;;;;;10.25;92.47;99514.53;5101916;28;20040;-63
2022/10/29 02:38:14;;;;;;;8.18;7.18;;;;;;;10.23;92.17;99512.88;5085156;28;20305;-64
2022/10/29 02:40:39;;;;;;;8.05;6.93;;;;;;;10.21;92.46;99512.91;5085505;28;20151;-64
2022/10/29 02:43:05;;;;;;;8.23;7.22;;;;;;;10.14;92.85;99506.16;5090128;28;20090;-64
2022/10/29 02:45:30;;;;;;;9.75;7.28;;;;;;;10.18;92.43;99503.47;5095464;28;20051;-65
2022/10/29 02:47:56;;;;;;;8.30;6.65;;;;;;;10.22;92.66;99504.25;5099807;28;20029;-65
2022/10/29 02:50:22;;;;;;;10.07;7.70;;;;;;;10.20;92.03;99498.25;5085029;28;20028;-64
2022/10/29 02:52:47;;;;;;;9.40;7.68;;;;;;;10.16;92.20;99500.06;5084944;28;20324;-65
2022/10/29 02:55:13;;;;;;;9.05;7.63;;;;;;;10.11;92.62;99486.38;5101229;28;20087;-65
2022/10/29 02:57:41;;;;;;;8.02;7.22;;;;;;;10.14;92.21;99488.03;5104994;28;20063;-64
2022/10/29 03:00:08;;;;;;;7.45;6.63;;;;;;;10.17;92.47;99485.38;5097953;28;20205;-64
2022/10/29 03:02:33;;;;;;;8.68;7.22;;;;;;;10.18;92.41;99471.56;5086924;28;20048;-65
2022/10/29 03:04:59;;;;;;;8.43;6.82;;;;;;;10.09;92.63;99472.63;5105135;28;20035;-65
2022/10/29 03:07:24;;;;;;;11.35;7.18;;;;;;;10.12;92.88;99474.31;5103051;28;20266;-65
2022/10/29 03:09:50;;;;;;;9.57;6.03;;;;;;;10.14;92.73;99465.59;5091965;28;20066;-64
2022/10/29 03:12:15;;;;;;;10.35;6.53;;;;;;;10.14;92.44;99475.94;5092579;28;20363;-65
2022/10/29 03:14:41;;;;;;;7.57;6.75;;;;;;;10.11;92.63;99462.25;5101744;28;20024;-65
2022/10/29 03:17:07;;;;;;;9.13;6.60;;;;;;;10.14;92.43;99457.00;5084378;28;20345;-64
2022/10/29 03:19:32;;;;;;;7.70;5.70;;;;;;;10.15;92.55;99456.97;5102794;28;20205;-64
2022/10/29 03:21:58;;;;;;;7.55;6.30;;;;;;;10.23;92.64;99464.53;5101531;28;20317;-65
2022/10/29 03:24:23;;;;;;;8.90;6.43;;;;;;;10.22;92.30;99457.69;5094269;28;20039;-65
2022/10/29 03:26:49;;;;;;;9.00;6.53;;;;;;;10.23;92.81;99458.50;5104308;28;20024;-66
2022/10/29 03:29:14;;;;;;;8.40;6.30;;;;;;;10.26;92.92;99450.66;5103136;28;20024;-66
2022/10/29 03:31:40;;;;;;;7.43;5.82;;;;;;;10.23;92.61;99455.94;5084705;28;20025;-65
2022/10/29 03:34:06;;;;;;;6.90;6.20;;;;;;;10.24;92.95;99455.03;5099066;28;20328;-65
2022/10/29 03:36:31;;;;;;;9.57;6.50;;;;;;;10.21;92.68;99445.63;5093802;28;20143;-65
2022/10/29 03:38:57;;;;;;;6.80;5.78;;;;;;;10.19;92.80;99443.06;5096013;28;20039;-66
2022/10/29 03:41:22;;;;;;;9.07;6.38;;;;;;;10.22;92.98;99441.28;5084220;28;20036;-65
2022/10/29 03:43:48;;;;;;;6.38;5.47;;;;;;;10.25;92.76;99430.88;5104298;28;20347;-66
2022/10/29 03:46:14;;;;;;;8.65;6.20;;;;;;;10.24;92.51;99436.94;5088000;28;20039;-65
2022/10/29 03:48:39;;;;;;;9.27;6.05;;;;;;;10.23;92.58;99432.63;5094816;28;20024;-65
2022/10/29 03:51:06;;;;;;;9.07;6.00;;;;;;;10.27;92.98;99419.56;5097716;28;20032;-66
2022/10/29 03:53:33;;;;;;;6.13;5.53;;;;;;;10.29;92.38;99423.00;5083207;28;20047;-64
2022/10/29 03:55:59;;;;;;;6.68;5.97;;;;;;;10.32;92.13;99422.06;5083689;28;20056;-65
2022/10/29 03:58:26;;;;;;;6.72;6.03;;;;;;;10.35;91.78;99430.63;5100776;28;20020;-64
2022/10/29 04:01:03;;;;;;;12.60;7.43;;;;;;;10.31;91.52;99413.44;5103582;28;20087;-65
2022/10/29 04:03:31;;;;;;;9.65;5.82;;;;;;;10.39;91.31;99418.47;5093903;28;20028;-65
2022/10/29 04:05:58;;;;;;;6.75;6.05;;;;;;;10.34;91.86;99420.31;5088359;28;20019;-65
2022/10/29 04:08:24;;;;;;;7.97;6.30;;;;;;;10.42;91.66;99420.97;5103147;28;20332;-65
2022/10/29 04:10:50;;;;;;;8.30;6.57;;;;;;;10.38;91.85;99414.19;5083623;28;20028;-65
2022/10/29 04:13:17;;;;;;;8.90;6.53;;;;;;;10.45;91.54;99412.28;5091351;28;20016;-65
2022/10/29 04:15:42;;;;;;;9.80;7.85;;;;;;;10.48;91.44;99409.63;5093667;28;20032;-65
2022/10/29 04:18:09;;;;;;;8.95;7.70;;;;;;;10.45;91.70;99396.75;5090906;28;20092;-65
2022/10/29 04:20:36;;;;;;;9.38;7.70;;;;;;;10.48;91.29;99402.69;5093452;28;20028;-66
2022/10/29 04:23:02;;;;;;;16.00;8.57;;;;;;;10.40;91.86;99377.91;5089648;28;20036;-65
2022/10/29 04:25:28;;;;;;;9.05;7.38;;;;;;;10.50;91.36;99390.56;5096449;28;20035;-65
2022/10/29 04:27:54;;;;;;;10.18;7.93;;;;;;;10.48;91.93;99383.72;5092614;28;20027;-65
2022/10/29 04:30:21;;;;;;;9.88;8.25;;;;;;;10.50;91.03;99379.34;5093075;28;20036;-65
2022/10/29 04:32:46;;;;;;;9.90;8.13;;;;;;;10.42;91.50;99376.97;5090541;28;20043;-65
2022/10/29 04:35:12;;;;;;;9.88;8.30;;;;;;;10.40;91.58;99372.72;5093559;28;20036;-67
2022/10/29 04:37:38;;;;;;;9.82;7.93;;;;;;;10.46;91.67;99376.00;5090799;28;20334;-66
2022/10/29 04:40:04;;;;;;;10.45;8.57;;;;;;;10.48;91.55;99371.63;5093281;28;20036;-66
2022/10/29 04:42:35;;;;;;;11.07;8.40;;;;;;;10.48;91.80;99369.03;5090974;28;20201;-67
2022/10/29 04:45:01;;;;;;;8.50;7.07;;;;;;;10.41;91.57;99354.56;5092658;28;20032;-66
2022/10/29 04:47:26;;;;;;;8.93;7.10;;;;;;;10.57;90.73;99361.91;5093402;28;20209;-66
2022/10/29 04:49:52;;;;;;;8.93;7.20;;;;;;;10.55;91.15;99363.72;5093923;28;20061;-66
2022/10/29 04:52:17;;;;;;;7.35;6.35;;;;;;;10.57;91.12;99355.00;5093416;28;20036;-65
2022/10/29 04:54:43;;;;;;;7.88;5.85;;;;;;;10.51;90.36;99358.59;5093324;28;20032;-67
2022/10/29 04:57:08;;;;;;;7.85;7.05;;;;;;;10.51;90.84;99348.22;5093857;28;20063;-66
2022/10/29 04:59:34;;;;;;;6.70;5.50;;;;;;;10.53;90.53;99340.41;5093131;28;20066;-64
2022/10/29 05:01:59;;;;;;;6.03;5.43;;;;;;;10.53;90.88;99340.41;5092560;28;20024;-64
2022/10/29 05:04:28;;;;;;;6.25;5.65;;;;;;;10.53;90.63;99327.47;5083347;28;20028;-65
2022/10/29 05:06:54;;;;;;;7.20;5.10;;;;;;;10.55;90.41;99327.47;5094884;28;20028;-63
2022/10/29 05:09:19;;;;;;;6.35;5.22;;;;;;;10.62;89.97;99329.84;5094958;28;20028;-64
2022/10/29 05:11:45;;;;;;;6.32;5.65;;;;;;;10.57;90.17;99326.50;5085745;28;20032;-65
2022/10/29 05:14:10;;;;;;;7.13;6.00;;;;;;;10.58;90.46;99323.03;5102835;28;20028;-65
2022/10/29 05:16:36;;;;;;;8.07;5.90;;;;;;;10.56;90.61;99331.72;5084620;28;20332;-65
2022/10/29 05:19:02;;;;;;;5.70;5.07;;;;;;;10.61;90.03;99327.28;5089002;28;20102;-65
2022/10/29 05:21:28;;;;;;;6.07;5.35;;;;;;;10.57;90.22;99323.91;5082347;28;20024;-65
2022/10/29 05:23:53;;;;;;;6.75;4.90;;;;;;;10.67;90.18;99324.53;5093889;28;20078;-65
2022/10/29 05:26:19;;;;;;;7.65;5.53;;;;;;;10.60;90.77;99333.34;5087870;28;20122;-64
2022/10/29 05:28:48;;;;;;;7.90;5.28;;;;;;;10.46;90.80;99315.59;5102597;28;20040;-64
2022/10/29 05:31:14;;;;;;;5.90;5.03;;;;;;;10.60;90.45;99328.16;5087608;28;20028;-64
2022/10/29 05:33:39;;;;;;;7.93;5.55;;;;;;;10.60;89.98;99328.16;5092812;28;20255;-64
2022/10/29 05:36:05;;;;;;;7.65;5.82;;;;;;;10.58;90.15;99324.78;5099192;28;20055;-65
2022/10/29 05:38:31;;;;;;;6.93;5.15;;;;;;;10.63;90.21;99321.19;5101612;28;20055;-65
2022/10/29 05:40:58;;;;;;;8.75;5.45;;;;;;;10.59;90.21;99304.03;5081515;28;20027;-64
2022/10/29 05:43:23;;;;;;;7.35;5.57;;;;;;;10.59;90.33;99313.50;5098649;28;20043;-65
2022/10/29 05:45:49;;;;;;;7.07;5.03;;;;;;;10.68;90.42;99314.13;5091343;28;20256;-63
2022/10/29 05:48:15;;;;;;;6.00;5.18;;;;;;;10.71;90.37;99308.84;5088891;28;20128;-64
2022/10/29 05:50:40;;;;;;;7.82;5.22;;;;;;;10.78;90.06;99312.13;5100821;28;20328;-64
2022/10/29 05:53:09;;;;;;;6.63;5.60;;;;;;;10.67;90.04;99293.44;5084271;28;20074;-64
2022/10/29 05:55:35;;;;;;;5.78;5.18;;;;;;;10.79;89.70;99306.06;5103546;28;20028;-64
2022/10/29 05:58:03;;;;;;;6.13;5.53;;;;;;;10.72;89.92;99307.13;5093077;28;20069;-65
2022/10/29 06:00:31;;;;;;;6.78;5.50;;;;;;;10.66;89.60;99295.19;5093939;28;20027;-65
2022/10/29 06:02:57;;;;;;;7.03;5.55;;;;;;;10.67;89.15;99294.31;5100825;28;20024;-65
2022/10/29 06:05:22;;;;;;;7.35;5.63;;;;;;;10.70;89.43;99296.81;5085606;28;20021;-64
2022/10/29 06:07:59;;;;;;;6.82;5.47;;;;;;;10.74;89.52;99289.78;5105177;28;20051;-65
2022/10/29 06:10:26;;;;;;;7.15;5.68;;;;;;;10.78;89.32;99287.97;5089560;28;20100;-64
2022/10/29 06:12:52;;;;;;;6.80;5.32;;;;;;;10.73;89.27;99293.28;5097539;28;20075;-65
2022/10/29 06:15:18;;;;;;;5.93;4.72;;;;;;;10.69;90.05;99282.16;5099077;28;20313;-65
2022/10/29 06:17:45;;;;;;;5.78;5.20;;;;;;;10.78;89.49;99283.63;5087700;28;20024;-65
2022/10/29 06:20:12;;;;;;;6.40;5.20;;;;;;;10.80;88.84;99288.75;5105855;28;20032;-64
2022/10/29 06:22:38;;;;;;;9.70;5.90;;;;;;;10.87;89.03;99278.19;5091889;28;20047;-65
2022/10/29 06:25:04;;;;;;;9.15;5.72;;;;;;;10.78;89.69;99280.19;5092234;28;20043;-64
2022/10/29 06:27:30;;;;;;;5.60;4.97;;;;;;;10.76;89.33;99272.47;5092336;28;20344;-65
2022/10/29 06:29:55;;;;;;;6.18;5.55;;;;;;;10.87;89.10;99275.59;5088852;28;20047;-65
2022/10/29 06:32:21;;;;;;;5.82;5.30;;;;;;;10.81;88.87;99275.75;5105259;28;20028;-64
2022/10/29 06:34:47;;;;;;;7.18;5.68;;;;;;;10.81;88.97;99273.16;5086391;28;20220;-64
2022/10/29 06:37:12;;;;;;;6.53;5.03;;;;;;;10.82;88.75;99267.09;5099578;28;20296;-65
2022/10/29 06:39:38;;;;;;;5.63;4.95;;;;;;;10.85;88.82;99251.47;5095947;28;20036;-65
2022/10/29 06:42:04;;;;;;;6.13;4.97;;;;;;;10.90;88.26;99260.84;5089546;28;20162;-64
2022/10/29 06:44:29;;;;;;;5.78;5.18;;;;;;;10.87;88.74;99252.28;5105104;28;20051;-65
2022/10/29 06:46:55;;;;;;;5.32;4.78;;;;;;;10.69;88.05;99253.66;5085195;28;20383;-65
2022/10/29 06:49:20;;;;;;;6.15;4.57;;;;;;;10.69;87.90;99255.41;5099885;28;20024;-64
2022/10/29 06:51:46;;;;;;;7.85;5.05;;;;;;;10.84;88.50;99251.50;5094389;28;20035;-65
2022/10/29 06:54:13;;;;;;;5.20;4.70;;;;;;;10.80;88.78;99245.59;5090192;28;20028;-65
2022/10/29 06:56:38;;;;;;;6.72;5.20;;;;;;;10.83;88.48;99240.31;5103921;28;20023;-65
2022/10/29 06:59:04;;;;;;;5.85;4.78;;;;;;;10.83;87.90;99239.44;5090156;28;20376;-65
2022/10/29 07:01:32;;;;;;;7.65;4.90;;;;;;;10.85;88.30;99233.34;5088303;28;20025;-64
2022/10/29 07:03:58;;;;;;;7.10;4.65;;;;;;;10.88;87.95;99235.81;5084672;28;20048;-64
2022/10/29 07:06:24;;;;;;;6.55;5.13;;;;;;;10.87;87.40;99223.78;5092040;28;20107;-64
2022/10/29 07:08:50;;;;;;;7.53;4.68;;;;;;;10.76;88.19;99227.56;5104794;28;20328;-65
2022/10/29 07:11:15;;;;;;;6.72;4.72;;;;;;;10.90;87.86;99228.00;5089018;28;20032;-65
2022/10/29 07:13:41;;;;;;;5.35;4.85;;;;;;;10.87;87.99;99228.09;5083234;28;20035;-64
2022/10/29 07:16:07;;;;;;;5.47;4.82;;;;;;;10.99;88.05;99226.91;5097372;28;20063;-65
2022/10/29 07:18:33;;;;;;;7.47;4.90;;;;;;;10.95;87.77;99217.53;5096004;28;20020;-64
2022/10/29 07:21:01;;;;;;;7.57;5.60;;;;;;;10.65;88.06;99202.00;5100896;28;20032;-65
2022/10/29 07:23:27;;;;;;;6.18;5.55;;;;;;;10.79;88.19;99212.81;5085692;28;20109;-65
2022/10/29 07:25:52;;;;;;;6.70;5.60;;;;;;;10.74;89.00;99206.91;5096782;28;20028;-65
2022/10/29 07:28:21;;;;;;;7.03;5.38;;;;;;;10.80;88.09;99206.75;5092164;28;20058;-64
2022/10/29 07:30:51;;;;;;;6.22;5.15;;;;;;;10.76;88.34;99210.31;5086685;28;20033;-64
2022/10/29 07:33:17;;;;;;;6.78;5.32;;;;;;;10.75;88.38;99208.59;5083773;28;20047;-64
2022/10/29 07:35:43;;;;;;;8.68;5.32;;;;;;;10.91;88.24;99210.75;5084880;28;20324;-65
2022/10/29 07:38:11;;;;;;;6.50;5.07;;;;;;;10.94;88.04;99208.03;5104338;28;20034;-64
2022/10/29 07:40:46;;;;;;;6.88;5.45;;;;;;;10.85;87.79;99194.47;5086998;28;20333;-64
2022/10/29 07:43:11;;;;;;;7.82;5.32;;;;;;;10.91;87.80;99197.78;5096240;28;20040;-66
2022/10/29 07:45:37;;;;;;;10.10;6.35;;;;;;;10.88;87.79;99189.19;5095323;28;20036;-65
2022/10/29 07:48:08;;;;;;;7.75;6.15;;;;;;;10.88;87.56;99191.78;5087445;28;20031;-65
2022/10/29 07:50:34;;;;;;;8.98;5.60;;;;;;;10.86;87.54;99180.63;5103889;28;20024;-65
2022/10/29 07:53:01;;;;;;;6.40;5.53;;;;;;;10.94;87.29;99174.38;5084062;28;20092;-65
2022/10/29 07:55:27;;;;;;;6.45;5.75;;;;;;;11.00;87.72;99171.56;5098959;28;20028;-64
2022/10/29 07:58:01;;;;;;;8.07;6.18;;;;;;;11.11;86.76;99172.09;5093121;28;20024;-64
2022/10/29 08:00:32;;;;;;;6.75;5.63;;;;;;;10.98;86.85;99142.28;5091464;28;20319;-66
2022/10/29 08:02:57;;;;;;;7.93;5.68;;;;;;;11.11;86.93;99158.28;5093196;28;20028;-64
2022/10/29 08:05:24;;;;;;;6.75;6.05;;;;;;;11.12;86.41;99157.41;5092043;28;20083;-65
2022/10/29 08:07:53;;;;;;;10.55;5.95;;;;;;;11.17;86.04;99158.06;5093720;28;20031;-64
2022/10/29 08:10:19;;;;;;;7.00;5.88;;;;;;;11.10;86.66;99147.09;5094021;28;20032;-65
2022/10/29 08:12:56;;;;;;;7.43;6.28;;;;;;;11.09;86.37;99144.50;5093961;28;20032;-64
2022/10/29 08:15:22;;;;;;;7.78;6.28;;;;;;;11.14;85.92;99135.69;5088341;28;20034;-65
2022/10/29 08:17:49;;;;;;;7.95;5.63;;;;;;;11.11;85.74;99128.03;5091647;28;20027;-65
2022/10/29 08:20:15;;;;;;;9.68;6.00;;;;;;;11.30;86.31;99142.97;5093744;28;20262;-64
2022/10/29 08:22:41;;;;;;;9.40;6.60;;;;;;;11.23;85.86;99126.78;5089925;28;20135;-64
2022/10/29 08:25:07;;;;;;;10.05;6.65;;;;;;;11.18;87.54;99131.28;5083290;28;20115;-66
2022/10/29 08:27:33;;;;;;;13.55;6.90;;;;;;;10.94;89.00;99138.09;5088194;28;20320;-65
2022/10/29 08:29:58;;;;;;;8.52;6.43;;;;;;;10.90;89.94;99128.72;5093061;28;20048;-65
2022/10/29 08:32:24;;;;;;;12.32;6.18;;;;;;;10.90;90.35;99119.19;5092179;28;20024;-65
2022/10/29 08:34:50;;;;;;;9.13;6.30;;;;;;;10.80;90.52;99129.03;5092903;28;20051;-65
2022/10/29 08:37:15;;;;;;;7.75;5.78;;;;;;;10.84;91.33;99114.22;5090627;28;20036;-65
2022/10/29 08:39:41;;;;;;;7.82;6.38;;;;;;;10.83;91.23;99118.56;5092157;28;20024;-65
2022/10/29 08:42:25;;;;;;;9.27;6.57;;;;;;;10.75;92.21;99123.13;5094021;28;20343;-65
2022/10/29 08:44:59;;;;;;;9.82;6.47;;;;;;;10.71;92.48;99118.94;5092606;28;20025;-65
2022/10/29 08:47:25;;;;;;;9.60;5.95;;;;;;;10.84;91.80;99117.66;5092812;28;20316;-65
2022/10/29 08:50:09;;;;;;;9.13;6.20;;;;;;;10.71;92.62;99111.19;5091284;28;20102;-65
2022/10/29 08:52:41;;;;;;;8.35;5.50;;;;;;;10.83;92.12;99108.22;5093285;28;20032;-66
2022/10/29 08:55:19;;;;;;;7.05;5.60;;;;;;;10.92;92.05;99103.63;5091196;28;20038;-66
2022/10/29 08:58:04;;;;;;;8.82;6.50;;;;;;;10.91;91.91;99086.38;5093897;28;20025;-66
2022/10/29 09:00:37;;;;;;;7.63;5.25;;;;;;;10.96;92.22;99087.94;5091922;28;20318;-65
2022/10/29 09:03:10;;;;;;;7.50;5.68;;;;;;;10.85;91.41;99075.31;5085453;28;20051;-65
2022/10/29 09:05:52;;;;;;;6.25;4.90;;;;;;;10.77;91.55;99086.81;5083492;28;20032;-64
2022/10/29 09:08:37;;;;;;;;;;;;;;;10.80;91.51;99079.81;5103402;28;20040;-64
2022/10/29 09:11:44;;;;;;;6.47;4.78;;;;;;;10.97;91.43;99076.66;5103261;28;20009;-65
2022/10/29 09:14:34;;;;;;;6.57;5.68;;;;;;;10.97;92.01;99070.63;5062009;28;20028;-64
2022/10/29 09:17:16;;;;;;;9.63;5.68;;;;;;;10.76;91.35;99065.28;5102247;28;20035;-65
2022/10/29 09:19:54;;;;;;;8.32;5.25;;;;;;;10.81;91.44;99046.97;5085961;28;20211;-65
2022/10/29 09:22:34;;;;;;;6.18;5.07;;;;;;;10.84;92.07;99044.28;5094239;28;20036;-66
2022/10/29 09:25:22;;;;;;;7.38;6.00;;;;;;;10.93;91.70;99035.34;5093636;28;20043;-64
2022/10/29 09:27:54;;;;;;;10.35;6.07;;;;;;;10.95;91.73;99033.59;5096907;28;20091;-65
2022/10/29 09:30:21;;;;;;;8.43;5.38;;;;;;;10.94;91.59;99032.72;5091701;28;20042;-65
2022/10/29 09:32:52;;;;;;;7.07;5.03;;;;;;;10.94;91.63;99026.69;5106354;28;20039;-66
2022/10/29 09:35:18;;;;;;;7.55;4.80;;;;;;;11.04;92.33;99022.88;5085029;28;20217;-67
2022/10/29 09:37:48;;;;;;;5.93;5.03;;;;;;;10.98;92.50;99021.34;5101998;28;20046;-65
2022/10/29 09:40:39;;;;;;;7.35;5.13;;;;;;;11.09;91.70;99005.44;5093534;28;20036;-65
2022/10/29 09:43:40;;;;;;;7.88;5.72;;;;;;;11.16;90.68;99011.25;5098155;28;20251;-65
2022/10/29 09:46:31;;;;;;;6.40;4.95;;;;;;;11.15;90.83;99005.22;5095298;28;20028;-66
2022/10/29 09:49:21;;;;;;;5.30;4.55;;;;;;;11.14;91.14;99003.53;5096269;28;20028;-66
2022/10/29 09:51:49;;;;;;;6.63;4.97;;;;;;;11.15;90.33;98994.84;5097828;28;20104;-66
2022/10/29 09:54:16;;;;;;;8.07;5.45;;;;;;;11.18;90.15;98999.09;5089338;28;20050;-66
2022/10/29 09:56:44;;;;;;;8.18;5.13;;;;;;;11.09;90.44;98999.41;5106558;28;20024;-67
2022/10/29 09:59:39;;;;;;;6.70;5.45;;;;;;;10.97;90.20;98996.34;5085899;28;20032;-66
2022/10/29 10:02:27;;;;;;;7.80;5.03;;;;;;;11.00;91.28;98979.84;5105628;28;20360;-64
2022/10/29 10:05:02;;;;;;;7.35;5.32;;;;;;;11.02;90.54;98988.44;5088341;28;20103;-65
2022/10/29 10:07:28;;;;;;;8.43;5.75;;;;;;;10.90;90.81;98986.25;5102019;28;20023;-64
2022/10/29 10:10:00;;;;;;;9.90;6.13;;;;;;;10.90;91.15;98974.13;5096422;28;20040;-64
2022/10/29 10:12:35;;;;;;;9.15;6.55;;;;;;;10.88;90.16;98974.19;5094803;28;20055;-65
2022/10/29 10:15:27;;;;;;;9.65;6.70;;;;;;;10.79;90.07;98977.09;5091422;28;20035;-65
2022/10/29 10:18:01;;;;;;;8.38;6.72;;;;;;;10.80;90.74;98968.44;5094556;28;20312;-66
2022/10/29 10:20:34;;;;;;;10.38;7.53;;;;;;;10.80;90.89;98965.00;5094459;28;20029;-64
2022/10/29 10:23:01;;;;;;;10.40;7.93;;;;;;;10.90;90.38;98962.94;5096446;28;20039;-65
2022/10/29 10:25:31;;;;;;;11.45;7.90;;;;;;;10.91;91.09;98959.44;5094259;28;20048;-65
2022/10/29 10:27:56;;;;;;;11.43;7.00;;;;;;;10.99;90.24;98954.84;5093043;28;20146;-66
2022/10/29 10:30:23;;;;;;;11.05;8.18;;;;;;;10.83;90.77;98960.56;5092620;28;20069;-66
2022/10/29 10:32:48;;;;;;;10.57;7.97;;;;;;;10.90;90.93;98947.38;5085516;28;20025;-66
2022/10/29 10:35:29;;;;;;;11.60;8.32;;;;;;;10.88;90.59;98924.97;5105404;28;20031;-66
2022/10/29 10:37:58;;;;;;;11.90;9.07;;;;;;;10.99;89.74;98944.50;5087115;28;20028;-65
2022/10/29 10:40:24;;;;;;;10.57;8.55;;;;;;;11.02;89.72;98944.38;5084909;28;20420;-65
2022/10/29 10:42:53;;;;;;;13.75;8.85;;;;;;;10.92;89.53;98915.34;5094126;28;20324;-64
2022/10/29 10:45:24;;;;;;;13.55;10.75;;;;;;;11.00;89.77;98935.78;5101736;28;20095;-64
2022/10/29 10:47:57;;;;;;;14.97;10.20;;;;;;;10.83;90.38;98926.03;5093956;28;20150;-65
2022/10/29 10:50:27;;;;;;;12.10;8.63;;;;;;;10.97;90.05;98933.31;5090037;28;20220;-65
2022/10/29 10:52:56;;;;;;;95.82;70.72;;;;;;;10.97;89.69;98925.53;5094847;28;20030;-65
2022/10/29 10:55:29;;;;;;;18.27;12.23;;;;;;;11.07;89.27;98918.28;5094148;28;20020;-65
2022/10/29 10:58:04;;;;;;;12.30;10.32;;;;;;;10.97;89.44;98912.59;5090777;28;20048;-65
2022/10/29 11:00:36;;;;;;;17.23;10.05;;;;;;;10.86;89.60;98900.88;5085784;28;20332;-65
2022/10/29 11:03:08;;;;;;;14.07;10.82;;;;;;;11.03;89.51;98905.47;5088643;28;20024;-64
2022/10/29 11:05:36;;;;;;;14.15;9.57;;;;;;;10.99;88.86;98890.09;5088342;28;20028;-67
2022/10/29 11:08:10;;;;;;;15.25;11.00;;;;;;;11.02;88.45;98892.56;5104922;28;20141;-65
2022/10/29 11:10:42;;;;;;;15.05;11.75;;;;;;;11.13;88.86;98894.75;5089429;28;20040;-65
2022/10/29 11:13:14;;;;;;;17.23;10.45;;;;;;;11.03;88.64;98897.69;5095683;28;20036;-64
2022/10/29 11:16:01;;;;;;;15.77;10.80;;;;;;;11.09;88.07;98887.97;5097561;28;20358;-65
2022/10/29 11:18:49;;;;;;;16.70;11.50;;;;;;;11.05;87.91;98877.72;5089273;28;20034;-65
2022/10/29 11:21:27;;;;;;;15.60;11.45;;;;;;;11.11;87.93;98871.47;5101182;28;20028;-65
2022/10/29 11:24:12;;;;;;;45.55;30.92;;;;;;;11.21;87.79;98874.56;5092923;28;20106;-64
2022/10/29 11:26:49;;;;;;;14.73;12.00;;;;;;;10.95;88.52;98860.00;5104512;28;20047;-65
2022/10/29 11:29:37;;;;;;;19.38;12.18;;;;;;;11.12;87.96;98880.94;5084083;28;20024;-66
2022/10/29 11:32:12;;;;;;;15.68;12.10;;;;;;;11.11;88.28;98876.66;5102645;28;20036;-65
2022/10/29 11:34:59;;;;;;;16.27;12.00;;;;;;;11.15;87.81;98870.47;5104613;28;20028;-65
2022/10/29 11:37:55;;;;;;;18.88;12.98;;;;;;;11.10;88.76;98861.16;5104217;28;20103;-66
2022/10/29 11:40:27;;;;;;;16.42;11.40;;;;;;;11.04;87.73;98852.75;5089897;28;20044;-65
2022/10/29 11:42:53;;;;;;;18.15;12.48;;;;;;;11.03;88.65;98855.34;5084078;28;20031;-64
2022/10/29 11:45:36;;;;;;;24.25;17.27;;;;;;;10.70;88.45;98794.41;5087738;28;20020;-65